»·PEaware :: N520MP KPDX-KOTH

N520MP :: KPDX-KOTH

FLIGHT INFORMATION

Flight Status: Arrived
Operator: Privately registered:
United States
More flights under this callsign
Pilot: Manuel P. (9695)
Aircraft: BOMBARDIER BD-100 CHALLENGER 300
(CL30)
More flights by this aircraft type
Origin: KPDX Portland Intl
United States
Destination: KOTH North Bend Mun
United States
More flights between these airports :: More routes between these airports
Route: +PTLD1 UBG V287 OTH
File this flight plan on PilotEdge
Remarks:
Altitude:
(Current/Filed)
24,000ft
Speed:
(Current/Filed)
400kts
Departed: 19-Dec-17 03:32 PM
Arrived: 19-Dec-17 04:14 PM
Distance/Time
Traveled:
148nm/0:41
Distance/Time
To Go:
Arrived

Flight Plot

Page will automatically refresh every two minutes.

Flight plan parsing failed; only flown route is shown


Map Options




Map Legend


Flown Route
Filed Route
Departure Airport
Arrival Airport
Navaid (VOR, NDB)
Fix

Horizontal Profiles

Position Reports

Time Latitude Longitude Heading Altitude Ground
Speed
19-Dec-17 15:18 45.588432 -122.585487 209 35ft 0kts
19-Dec-17 15:19 45.588432 -122.585487 209 35ft 0kts
19-Dec-17 15:20 45.588432 -122.585487 209 35ft 0kts
19-Dec-17 15:21 45.588432 -122.585487 209 35ft 0kts
19-Dec-17 15:24 45.588335 -122.585471 29 35ft 0kts
19-Dec-17 15:25 45.588335 -122.585471 29 35ft 0kts
19-Dec-17 15:26 45.588335 -122.585471 29 35ft 0kts
19-Dec-17 15:27 45.588335 -122.585471 29 35ft 0kts
19-Dec-17 15:28 45.588335 -122.585471 29 35ft 0kts
19-Dec-17 15:29 45.588335 -122.585471 29 35ft 0kts
19-Dec-17 15:30 45.588335 -122.585471 29 35ft 0kts
19-Dec-17 15:31 45.588520 -122.585297 50 35ft 4kts
19-Dec-17 15:32 45.587466 -122.582399 118 35ft 10kts
19-Dec-17 15:33 45.586219 -122.579114 117 35ft 6kts
19-Dec-17 15:34 45.586146 -122.576638 120 35ft 13kts
19-Dec-17 15:35 45.583520 -122.570004 118 35ft 17kts
19-Dec-17 15:36 45.582717 -122.567678 90 35ft 0kts
19-Dec-17 15:37 45.583684 -122.567227 310 36ft 15kts
19-Dec-17 15:38 45.601642 -122.610564 299 1643ft 207kts
19-Dec-17 15:39 45.633980 -122.692894 298 4478ft 234kts
19-Dec-17 15:40 45.626210 -122.766496 215 7071ft 231kts
19-Dec-17 15:41 45.568844 -122.824223 215 9520ft 283kts
19-Dec-17 15:42 45.495454 -122.876040 205 11975ft 314kts
19-Dec-17 15:43 45.417584 -122.928247 214 14353ft 316kts
19-Dec-17 15:44 45.340744 -122.987961 210 16342ft 324kts
19-Dec-17 15:45 45.259111 -123.038594 211 18298ft 325kts
19-Dec-17 15:46 45.177575 -123.089873 212 20253ft 328kts
19-Dec-17 15:47 45.094338 -123.142399 212 21771ft 342kts
19-Dec-17 15:48 45.020005 -123.189234 212 21773ft 361kts
19-Dec-17 15:49 44.916460 -123.254088 212 21795ft 345kts
19-Dec-17 15:50 44.834326 -123.305431 212 19761ft 325kts
19-Dec-17 15:51 44.754591 -123.355179 211 16961ft 310kts
19-Dec-17 15:52 44.691047 -123.394716 211 14627ft 298kts
19-Dec-17 15:53 44.605568 -123.447745 210 11342ft 283kts
19-Dec-17 15:54 44.549844 -123.482145 209 9128ft 245kts
19-Dec-17 15:55 44.489114 -123.519976 203 7901ft 265kts
19-Dec-17 15:56 44.420909 -123.561843 203 7885ft 264kts
19-Dec-17 15:57 44.354895 -123.602281 203 7885ft 261kts
19-Dec-17 15:58 44.285993 -123.644447 203 7887ft 278kts
19-Dec-17 15:59 44.215117 -123.687738 202 7886ft 283kts
19-Dec-17 16:00 44.143393 -123.731384 204 7911ft 282kts
19-Dec-17 16:01 44.073121 -123.774112 204 7911ft 271kts
19-Dec-17 16:02 44.005587 -123.814990 206 7911ft 263kts
19-Dec-17 16:03 43.939807 -123.854816 206 7992ft 257kts
19-Dec-17 16:04 43.880620 -123.907174 229 6919ft 263kts
19-Dec-17 16:05 43.828009 -123.976669 225 5991ft 255kts
19-Dec-17 16:06 43.778240 -124.040924 225 5996ft 247kts
19-Dec-17 16:07 43.725812 -124.108812 225 5997ft 272kts
19-Dec-17 16:08 43.673803 -124.186778 235 5993ft 278kts
19-Dec-17 16:09 43.626959 -124.266577 235 5990ft 262kts
19-Dec-17 16:10 43.582081 -124.342694 235 5991ft 252kts
19-Dec-17 16:11 43.538282 -124.416559 234 5991ft 247kts
19-Dec-17 16:12 43.495132 -124.488309 235 5991ft 243kts
19-Dec-17 16:13 43.451878 -124.560227 235 5404ft 257kts
19-Dec-17 16:14 43.399337 -124.624021 182 3015ft 269kts
19-Dec-17 16:15 43.356343 -124.552232 115 2985ft 242kts
19-Dec-17 16:16 43.345553 -124.471786 85 2991ft 206kts
19-Dec-17 16:17 43.359071 -124.396151 56 2330ft 204kts
19-Dec-17 16:18 43.382611 -124.338525 52 1334ft 149kts
19-Dec-17 16:19 43.402408 -124.290666 53 583ft 157kts
19-Dec-17 16:20 43.421220 -124.244459 62 24ft 14kts
19-Dec-17 16:21 43.421042 -124.242744 177 24ft 5kts
19-Dec-17 16:22 43.419679 -124.245452 239 24ft 13kts
19-Dec-17 16:23 43.418016 -124.246977 198 23ft 9kts

Navigation Log

Ident Type
Flight plan parsing failed, navigation log unavailable